Stations météo

réclame
Mon MeteoGroup
Bousson, Italie (16058): Température de l'air & dewpoint: 14.10.2017 16:00:00 - 20.10.2017 16:00:00 (CEST)Bousson, Italie (16058): Vitesse du vent: 14.10.2017 16:00:00 - 20.10.2017 16:00:00 (CEST)Bousson, Italie (16058): Direction du vent: 14.10.2017 16:00:00 - 20.10.2017 16:00:00 (CEST)Bousson, Italie (16058): Quantités de précipitations: 14.10.2017 16:00:00 - 20.10.2017 16:00:00 (CEST)
Date & Time tt [°C] td [°C] ff [km/h] ff [knt] dd rr [mm]
20.10.2017 16:00:00 16,5 -0,8 13 7 W -
20.10.2017 15:00:00 15,9 0,0 18 10 W -
20.10.2017 14:00:00 7,0 5,8 2 1 E -
20.10.2017 13:00:00 - - - - - -
20.10.2017 12:00:00 - - - - - -
20.10.2017 11:00:00 4,5 4,5 2 1 E -
20.10.2017 10:00:00 1,0 1,0 2 1 E -
20.10.2017 09:00:00 0,2 0,2 2 1 E -
20.10.2017 08:00:00 0,0 0,0 2 1 E 0,0
20.10.2017 07:00:00 0,3 0,3 2 1 E -
20.10.2017 06:00:00 0,6 0,5 4 2 ENE -
20.10.2017 05:00:00 1,0 0,9 2 1 E -
20.10.2017 04:00:00 1,3 0,9 0 0 N -
20.10.2017 03:00:00 2,0 1,3 2 1 NNE -
20.10.2017 02:00:00 3,2 1,9 2 1 E 0,0
20.10.2017 01:00:00 5,4 4,8 0 0 N -
20.10.2017 00:00:00 5,4 4,7 0 0 N -
19.10.2017 23:00:00 5,8 4,7 0 0 N -
19.10.2017 22:00:00 6,8 5,7 0 0 N -
19.10.2017 21:00:00 6,9 5,4 2 1 E -
19.10.2017 20:00:00 7,9 5,7 0 0 N 0,0
19.10.2017 19:00:00 9,5 7,2 2 1 WSW -
19.10.2017 18:00:00 10,9 7,7 8 4 WSW -
19.10.2017 17:00:00 12,3 7,7 9 5 W -
19.10.2017 16:00:00 11,9 5,9 9 5 SW -
19.10.2017 15:00:00 13,9 4,4 9 5 WSW -
19.10.2017 14:00:00 13,4 3,9 9 5 WSW 0,0
19.10.2017 13:00:00 12,4 4,8 11 6 WSW -
19.10.2017 12:00:00 11,7 6,4 11 6 WSW -
19.10.2017 11:00:00 9,0 7,4 2 1 SSW -
19.10.2017 10:00:00 7,0 6,9 0 0 N -
19.10.2017 09:00:00 5,2 5,1 0 0 N -
19.10.2017 08:00:00 4,2 4,1 0 0 N 0,0
19.10.2017 07:00:00 3,5 3,1 2 1 E -
19.10.2017 06:00:00 4,3 4,2 2 1 SE -
19.10.2017 05:00:00 3,3 2,7 2 1 E -
19.10.2017 04:00:00 4,4 4,0 0 0 N -
19.10.2017 03:00:00 4,3 4,2 2 1 E -
19.10.2017 02:00:00 3,4 2,5 2 1 E 0,0
19.10.2017 01:00:00 4,5 3,1 2 1 ESE -
19.10.2017 00:00:00 5,8 4,6 2 1 E -
18.10.2017 23:00:00 5,4 4,3 2 1 E -
18.10.2017 22:00:00 5,3 3,4 2 1 E -
18.10.2017 21:00:00 6,5 3,8 2 1 E -
18.10.2017 20:00:00 8,1 4,3 2 1 ESE 0,0
18.10.2017 19:00:00 9,8 4,3 5 3 SSW -
18.10.2017 18:00:00 11,6 4,3 9 5 SW -
18.10.2017 17:00:00 13,9 2,7 9 5 WSW -
18.10.2017 16:00:00 15,2 -1,5 13 7 WSW -
18.10.2017 15:00:00 15,5 -3,0 13 7 SW -
18.10.2017 14:00:00 15,9 -4,2 11 6 WSW 0,0
18.10.2017 13:00:00 15,0 -5,5 9 5 WSW -
18.10.2017 12:00:00 12,6 1,5 8 4 W -
18.10.2017 11:00:00 3,0 2,4 2 1 E -
18.10.2017 10:00:00 0,6 -0,3 2 1 E -
18.10.2017 09:00:00 0,0 -0,7 4 2 E -
18.10.2017 08:00:00 0,0 -0,9 2 1 E 0,0
18.10.2017 07:00:00 0,4 -0,3 4 2 E -
18.10.2017 06:00:00 0,6 -0,1 4 2 E -
18.10.2017 05:00:00 0,8 0,1 4 2 E -
18.10.2017 04:00:00 1,3 0,4 2 1 E -
18.10.2017 03:00:00 1,7 0,8 2 1 E -
18.10.2017 02:00:00 2,2 1,3 2 1 E 0,0
18.10.2017 01:00:00 2,7 1,4 2 1 E -
18.10.2017 00:00:00 3,6 2,1 2 1 E -
17.10.2017 23:00:00 4,4 2,2 2 1 NE -
17.10.2017 22:00:00 5,2 2,2 2 1 ENE -
17.10.2017 21:00:00 6,6 2,8 2 1 E -
17.10.2017 20:00:00 8,1 1,6 4 2 E 0,0
17.10.2017 19:00:00 10,5 -0,7 2 1 W -
17.10.2017 18:00:00 13,7 -2,0 5 3 SSW -
17.10.2017 17:00:00 17,1 -1,7 11 6 WSW -
17.10.2017 16:00:00 18,1 -1,3 11 6 ESE -
17.10.2017 15:00:00 18,8 -2,3 13 7 WSW -
17.10.2017 14:00:00 18,6 -3,0 11 6 WSW 0,0
17.10.2017 13:00:00 18,1 -3,4 9 5 WSW -
17.10.2017 12:00:00 16,3 0,3 8 4 WSW -
17.10.2017 11:00:00 6,1 4,7 2 1 E -
17.10.2017 10:00:00 2,6 0,5 2 1 E -
17.10.2017 09:00:00 1,9 -0,2 4 2 E -
17.10.2017 08:00:00 1,7 -0,6 4 2 E 0,0
17.10.2017 07:00:00 1,7 -0,7 4 2 E -
17.10.2017 06:00:00 2,1 0,0 4 2 E -
17.10.2017 05:00:00 2,2 0,1 4 2 E -
17.10.2017 04:00:00 2,5 0,4 2 1 E -
17.10.2017 03:00:00 2,6 -0,2 2 1 E -
17.10.2017 02:00:00 2,7 -0,5 4 2 E 0,0
17.10.2017 01:00:00 3,0 -0,3 4 2 E -
17.10.2017 00:00:00 3,4 0,4 2 1 E -
16.10.2017 23:00:00 4,3 1,3 4 2 E -
16.10.2017 22:00:00 4,9 1,3 2 1 E -
16.10.2017 21:00:00 6,2 1,7 4 2 E -
16.10.2017 20:00:00 7,9 0,5 4 2 ENE 0,0
16.10.2017 19:00:00 10,6 -1,3 2 1 ENE -
16.10.2017 18:00:00 13,7 -3,7 5 3 SW -
16.10.2017 17:00:00 19,2 -1,9 9 5 SW -
16.10.2017 16:00:00 20,4 -2,7 11 6 WSW -
16.10.2017 15:00:00 20,7 -4,5 11 6 WSW -
16.10.2017 14:00:00 20,9 -4,4 9 5 WSW 0,0
16.10.2017 13:00:00 20,0 -3,1 8 4 WSW -
16.10.2017 12:00:00 16,3 3,3 2 1 E -
16.10.2017 11:00:00 6,7 4,3 2 1 E -
16.10.2017 10:00:00 2,6 0,8 2 1 E -
16.10.2017 09:00:00 2,0 0,4 4 2 E -
16.10.2017 08:00:00 1,9 0,3 2 1 E -
16.10.2017 07:00:00 2,2 0,7 2 1 E -
16.10.2017 06:00:00 2,6 1,4 2 1 E -
16.10.2017 05:00:00 2,9 1,7 4 2 E -
16.10.2017 04:00:00 3,0 1,7 2 1 E -
16.10.2017 03:00:00 3,6 2,2 4 2 E -
16.10.2017 02:00:00 3,8 2,4 4 2 E 0,0
16.10.2017 01:00:00 4,4 3,0 2 1 E -
16.10.2017 00:00:00 4,9 3,5 2 1 E -
15.10.2017 23:00:00 5,3 3,3 2 1 E -
15.10.2017 22:00:00 6,2 4,0 2 1 E -
15.10.2017 21:00:00 7,1 3,7 2 1 E -
15.10.2017 20:00:00 8,8 3,2 2 1 E 0,0
15.10.2017 19:00:00 11,2 1,3 2 1 E -
15.10.2017 18:00:00 14,2 -0,8 5 3 SW -
15.10.2017 17:00:00 18,9 -0,6 9 5 SW -
15.10.2017 16:00:00 20,0 -0,7 9 5 SW -
15.10.2017 15:00:00 20,4 -1,5 11 6 WSW -
15.10.2017 14:00:00 20,4 -1,5 11 6 WSW 0,0
15.10.2017 13:00:00 18,9 -0,1 11 6 WSW -
15.10.2017 12:00:00 17,2 3,7 5 3 SSW -
15.10.2017 11:00:00 8,1 7,5 2 1 E -
15.10.2017 10:00:00 3,9 3,3 2 1 E -
15.10.2017 09:00:00 3,3 2,7 2 1 E -
15.10.2017 08:00:00 3,2 2,5 4 2 E 0,0
15.10.2017 07:00:00 3,5 2,8 4 2 E -
15.10.2017 06:00:00 3,7 3,0 2 1 E -
15.10.2017 05:00:00 3,6 2,6 2 1 E -
15.10.2017 04:00:00 3,9 2,9 2 1 E -
15.10.2017 03:00:00 4,2 3,0 4 2 E -
15.10.2017 02:00:00 4,4 3,0 2 1 E 0,0
15.10.2017 01:00:00 4,5 2,8 2 1 E -
15.10.2017 00:00:00 5,0 3,2 2 1 E -
14.10.2017 23:00:00 5,5 3,1 2 1 E -
14.10.2017 22:00:00 6,1 3,0 2 1 E -
14.10.2017 21:00:00 7,3 3,1 2 1 E -
14.10.2017 20:00:00 9,0 2,3 2 1 E 0,0
14.10.2017 19:00:00 11,3 0,0 2 1 SSE -
14.10.2017 18:00:00 14,6 -2,0 5 3 SSW -
14.10.2017 17:00:00 18,9 -1,1 11 6 SW -
14.10.2017 16:00:00 19,7 -1,5 11 6 WSW -

tt = Température de l'air
td = dewpoint
ff = Vitesse du vent
dd = Direction du vent
rr = Quantités de précipitations

stations d'obs. à proximité